createdAt,value
2019-01-06T00:00:13.926Z,2.70
2019-01-06T00:02:59.773Z,2.97
2019-01-06T00:05:48.630Z,2.67
2019-01-06T00:08:43.874Z,3.00
2019-01-06T00:11:32.713Z,2.50
2019-01-06T00:14:20.502Z,2.00
2019-01-06T00:17:08.726Z,2.60
2019-01-06T00:20:05.622Z,3.20
2019-01-06T00:22:54.537Z,2.57
2019-01-06T00:26:02.757Z,2.43
2019-01-06T00:28:59.179Z,2.30
2019-01-06T00:31:41.437Z,3.20
2019-01-06T00:34:40.909Z,2.60
2019-01-06T00:37:29.683Z,2.40
2019-01-06T00:40:21.656Z,2.50
2019-01-06T00:43:10.869Z,2.53
2019-01-06T00:46:04.199Z,2.50
2019-01-06T00:48:48.449Z,2.40
2019-01-06T00:51:41.177Z,2.20
2019-01-06T00:54:32.108Z,3.03
2019-01-06T00:57:21.364Z,2.63
2019-01-06T01:00:17.664Z,2.83
2019-01-06T01:03:06.712Z,2.87
2019-01-06T01:06:02.183Z,2.60
2019-01-06T01:08:51.544Z,2.73
2019-01-06T01:11:35.536Z,2.63
2019-01-06T01:14:34.682Z,2.83
2019-01-06T01:17:22.502Z,2.53
2019-01-06T01:20:11.408Z,3.00
2019-01-06T01:23:00.233Z,2.53
2019-01-06T01:25:46.481Z,2.87
2019-01-06T01:28:50.127Z,2.97
2019-01-06T01:31:50.184Z,2.57
2019-01-06T01:34:39.679Z,3.10
2019-01-06T01:37:27.788Z,2.70
2019-01-06T01:40:13.909Z,2.50
2019-01-06T01:43:02.448Z,2.90
2019-01-06T01:45:52.722Z,2.97
2019-01-06T01:48:45.753Z,2.40
2019-01-06T01:51:34.241Z,2.50
2019-01-06T01:54:23.305Z,1.90
2019-01-06T01:57:24.180Z,2.80
2019-01-06T02:00:13.006Z,2.20
2019-01-06T02:03:01.696Z,2.30
2019-01-06T02:06:10.608Z,2.03
2019-01-06T02:09:12.818Z,2.47
2019-01-06T02:11:58.374Z,1.83
2019-01-06T02:14:59.425Z,2.40
2019-01-06T02:17:52.821Z,1.90
2019-01-06T02:20:43.336Z,2.07
2019-01-06T02:23:34.347Z,1.90
2019-01-06T02:26:23.217Z,2.60
2019-01-06T02:29:11.868Z,2.90
2019-01-06T02:32:01.546Z,1.87
2019-01-06T02:34:50.438Z,1.60
2019-01-06T02:37:53.082Z,2.17
2019-01-06T02:40:41.865Z,2.10
2019-01-06T02:43:30.867Z,1.50
2019-01-06T02:46:19.804Z,1.57
2019-01-06T02:49:05.828Z,1.90
2019-01-06T02:51:55.221Z,1.23
2019-01-06T02:54:45.555Z,1.70
2019-01-06T02:57:38.829Z,1.70
2019-01-06T03:00:43.778Z,2.33
2019-01-06T03:03:40.113Z,1.73
2019-01-06T03:06:30.773Z,1.33
2019-01-06T03:09:15.406Z,1.60
2019-01-06T03:12:09.069Z,1.77
2019-01-06T03:14:58.406Z,1.57
2019-01-06T03:17:54.416Z,1.50
2019-01-06T03:20:43.622Z,1.30
2019-01-06T03:23:32.470Z,1.40
2019-01-06T03:26:21.564Z,1.50
2019-01-06T03:29:10.637Z,1.67
2019-01-06T03:32:09.891Z,1.80
2019-01-06T03:35:04.239Z,2.00
2019-01-06T03:38:12.759Z,1.70
2019-01-06T03:41:21.063Z,1.37
2019-01-06T03:44:22.980Z,1.83
2019-01-06T03:47:17.427Z,2.10
2019-01-06T03:49:59.398Z,1.60
2019-01-06T03:52:48.570Z,1.53
2019-01-06T03:55:45.527Z,2.10
2019-01-06T03:58:38.737Z,1.73
2019-01-06T04:01:46.948Z,1.50
2019-01-06T04:04:36.612Z,1.70
2019-01-06T04:07:26.875Z,1.50
2019-01-06T04:10:23.041Z,1.87
2019-01-06T04:13:25.302Z,1.70
2019-01-06T04:16:28.068Z,1.70
2019-01-06T04:19:22.061Z,2.50
2019-01-06T04:22:15.459Z,2.17
2019-01-06T04:25:23.791Z,1.70
2019-01-06T04:28:13.278Z,2.30
2019-01-06T04:31:01.969Z,2.03
2019-01-06T04:33:50.602Z,2.00
2019-01-06T04:36:41.296Z,2.07
2019-01-06T04:39:32.286Z,1.90
2019-01-06T04:42:21.662Z,2.40
2019-01-06T04:45:29.946Z,2.60
2019-01-06T04:48:21.542Z,1.97
2019-01-06T04:51:10.182Z,2.23
2019-01-06T04:54:13.037Z,2.80
2019-01-06T04:57:02.529Z,2.27
2019-01-06T04:59:51.492Z,2.70
2019-01-06T05:02:40.596Z,1.93
2019-01-06T05:05:28.557Z,1.90
2019-01-06T05:08:24.711Z,1.87
2019-01-06T05:11:15.096Z,2.33
2019-01-06T05:14:14.481Z,2.23
2019-01-06T05:17:03.486Z,1.93
2019-01-06T05:19:48.760Z,2.00
2019-01-06T05:22:44.891Z,1.77
2019-01-06T05:25:38.362Z,1.70
2019-01-06T05:28:27.521Z,1.80
2019-01-06T05:31:21.017Z,1.63
2019-01-06T05:34:11.564Z,2.17
2019-01-06T05:37:00.909Z,1.40
2019-01-06T05:39:49.996Z,1.60
2019-01-06T05:42:33.466Z,2.00
2019-01-06T05:45:36.385Z,1.70
2019-01-06T05:48:32.550Z,1.70
2019-01-06T05:51:22.938Z,1.47
2019-01-06T05:54:21.190Z,1.90
2019-01-06T05:57:15.158Z,1.43
2019-01-06T06:00:05.296Z,1.50
2019-01-06T06:03:10.440Z,1.43
2019-01-06T06:06:01.613Z,1.50
2019-01-06T06:08:52.198Z,1.53
2019-01-06T06:11:40.839Z,1.93
2019-01-06T06:14:29.557Z,1.80
2019-01-06T06:17:19.977Z,2.13
2019-01-06T06:20:23.691Z,1.60
2019-01-06T06:23:29.278Z,1.83
2019-01-06T06:26:25.690Z,1.60
2019-01-06T06:29:13.541Z,1.60
2019-01-06T06:32:02.996Z,1.73
2019-01-06T06:35:05.447Z,2.43
2019-01-06T06:38:06.876Z,1.93
2019-01-06T06:40:51.321Z,1.77
2019-01-06T06:43:40.632Z,2.37
2019-01-06T06:46:29.757Z,2.10
2019-01-06T06:49:18.634Z,1.50
2019-01-06T06:52:08.758Z,1.80
2019-01-06T06:55:10.965Z,2.07
2019-01-06T06:58:40.418Z,1.90
2019-01-06T07:01:43.705Z,2.00
2019-01-06T07:04:36.829Z,2.00
2019-01-06T07:07:29.811Z,1.70
2019-01-06T07:10:29.203Z,1.43
2019-01-06T07:13:18.404Z,1.80
2019-01-06T07:16:13.137Z,1.47
2019-01-06T07:19:09.641Z,2.20
2019-01-06T07:21:57.750Z,1.77
2019-01-06T07:24:48.953Z,2.20
2019-01-06T07:27:39.122Z,1.70
2019-01-06T07:30:27.960Z,1.77
2019-01-06T07:33:29.624Z,2.87
2019-01-06T07:36:15.593Z,2.07
2019-01-06T07:39:15.490Z,1.90
2019-01-06T07:42:02.832Z,1.70
2019-01-06T07:44:44.937Z,1.97
2019-01-06T07:47:35.999Z,2.43
2019-01-06T07:50:41.093Z,1.93
2019-01-06T07:53:38.171Z,2.07
2019-01-06T07:56:40.470Z,2.33
2019-01-06T07:59:22.264Z,1.70
2019-01-06T08:02:12.385Z,2.57
2019-01-06T08:05:02.617Z,2.37
2019-01-06T08:07:51.596Z,2.10
2019-01-06T08:10:42.064Z,2.30
2019-01-06T08:13:34.062Z,2.63
2019-01-06T08:16:21.478Z,2.43
2019-01-06T08:19:07.008Z,2.00
2019-01-06T08:22:12.487Z,2.47
2019-01-06T08:25:20.463Z,2.43
2019-01-06T08:28:10.849Z,2.07
2019-01-06T08:30:59.714Z,2.10
2019-01-06T08:34:01.968Z,2.63
2019-01-06T08:36:51.976Z,2.00
2019-01-06T08:39:41.928Z,2.40
2019-01-06T08:42:30.951Z,2.27
2019-01-06T08:45:37.968Z,2.30
2019-01-06T08:48:26.711Z,2.43
2019-01-06T08:51:14.599Z,2.57
2019-01-06T08:54:03.550Z,2.70
2019-01-06T08:56:48.034Z,2.50
2019-01-06T08:59:53.865Z,1.90
2019-01-06T09:02:54.225Z,2.40
2019-01-06T09:06:03.131Z,2.30
2019-01-06T09:08:54.796Z,2.30
2019-01-06T09:11:47.526Z,2.57
2019-01-06T09:14:35.592Z,2.40
2019-01-06T09:17:24.564Z,2.60
2019-01-06T09:20:25.467Z,2.10
2019-01-06T09:23:16.248Z,2.20
2019-01-06T09:26:19.032Z,2.67
2019-01-06T09:29:08.543Z,2.53
2019-01-06T09:32:02.536Z,2.80
2019-01-06T09:35:02.859Z,3.30
2019-01-06T09:37:56.793Z,2.30
2019-01-06T09:40:48.549Z,2.73
2019-01-06T09:43:35.584Z,2.80
2019-01-06T09:46:38.188Z,2.60
2019-01-06T09:49:44.534Z,3.00
2019-01-06T09:52:33.396Z,2.40
2019-01-06T09:55:24.557Z,2.60
2019-01-06T09:58:04.877Z,2.23
2019-01-06T10:00:53.966Z,2.40
2019-01-06T10:03:57.166Z,2.80
2019-01-06T10:06:47.069Z,3.07
2019-01-06T10:09:43.438Z,2.57
2019-01-06T10:12:32.763Z,2.30
2019-01-06T10:15:37.257Z,2.90
2019-01-06T10:18:45.750Z,3.00
2019-01-06T10:21:49.653Z,2.60
2019-01-06T10:24:40.695Z,2.30
2019-01-06T10:27:29.667Z,2.73
2019-01-06T10:30:16.257Z,2.40
2019-01-06T10:33:11.133Z,2.67
2019-01-06T10:36:00.119Z,3.03
2019-01-06T10:38:48.677Z,2.90
2019-01-06T10:41:46.707Z,3.00
2019-01-06T10:44:43.279Z,3.13
2019-01-06T10:47:45.378Z,2.97
2019-01-06T10:50:34.404Z,3.00
2019-01-06T10:53:28.678Z,3.20
2019-01-06T10:56:17.410Z,2.40
2019-01-06T10:59:10.789Z,2.57
2019-01-06T11:02:06.227Z,2.70
2019-01-06T11:04:48.401Z,2.47
2019-01-06T11:07:38.334Z,2.97
2019-01-06T11:10:28.715Z,2.77
2019-01-06T11:13:17.926Z,2.50
2019-01-06T11:16:20.719Z,2.93
2019-01-06T11:19:11.247Z,2.33
2019-01-06T11:22:19.664Z,2.80
2019-01-06T11:25:08.494Z,2.37
2019-01-06T11:28:04.759Z,2.43
2019-01-06T11:31:01.804Z,2.07
2019-01-06T11:34:03.190Z,1.80
2019-01-06T11:36:50.278Z,1.83
2019-01-06T11:39:53.631Z,1.50
2019-01-06T11:42:46.035Z,2.10
2019-01-06T11:45:54.545Z,2.03
2019-01-06T11:48:44.337Z,1.80
2019-01-06T11:51:33.859Z,1.80
2019-01-06T11:54:31.022Z,1.60
2019-01-06T11:57:20.494Z,1.87
2019-01-06T12:00:11.674Z,1.87
2019-01-06T12:03:14.071Z,1.70
2019-01-06T12:06:10.324Z,1.80
2019-01-06T12:08:54.195Z,2.00
2019-01-06T12:11:44.015Z,3.60
2019-01-06T12:14:32.841Z,3.90
2019-01-06T12:17:18.318Z,2.20
2019-01-06T12:20:16.668Z,1.80
2019-01-06T12:23:13.939Z,1.57
2019-01-06T12:26:18.854Z,2.20
2019-01-06T12:29:08.230Z,2.10
2019-01-06T12:31:58.469Z,1.70
2019-01-06T12:34:48.065Z,1.53
2019-01-06T12:37:38.736Z,2.00
2019-01-06T12:40:30.731Z,1.70
2019-01-06T12:43:24.048Z,1.80
2019-01-06T12:46:26.598Z,2.40
2019-01-06T12:49:15.731Z,2.67
2019-01-06T12:52:04.634Z,2.07
2019-01-06T12:55:18.904Z,2.03
2019-01-06T12:58:09.440Z,2.00
2019-01-06T13:00:54.523Z,2.87
2019-01-06T13:03:46.193Z,2.03
2019-01-06T13:06:30.034Z,2.20
2019-01-06T13:09:26.726Z,2.60
2019-01-06T13:12:14.434Z,2.10
2019-01-06T13:15:07.986Z,2.63
2019-01-06T13:17:57.106Z,2.57
2019-01-06T13:20:59.717Z,2.80
2019-01-06T13:23:52.996Z,2.50
2019-01-06T13:26:42.065Z,3.10
2019-01-06T13:29:23.760Z,2.70
2019-01-06T13:32:13.420Z,2.30
2019-01-06T13:35:03.226Z,3.00
2019-01-06T13:38:19.792Z,2.27
2019-01-06T13:41:10.158Z,3.13
2019-01-06T13:44:09.794Z,2.97
2019-01-06T13:47:02.857Z,2.43
2019-01-06T13:50:00.335Z,2.80
2019-01-06T13:52:46.741Z,2.37
2019-01-06T13:55:49.596Z,2.90
2019-01-06T13:58:38.997Z,3.27
2019-01-06T14:01:35.845Z,2.40
2019-01-06T14:04:36.420Z,2.63
2019-01-06T14:07:29.296Z,2.57
2019-01-06T14:10:12.703Z,2.30
2019-01-06T14:13:01.623Z,2.70
2019-01-06T14:15:51.210Z,2.60
2019-01-06T14:18:45.782Z,3.00
2019-01-06T14:21:38.297Z,2.50
2019-01-06T14:24:23.520Z,3.10
2019-01-06T14:27:23.451Z,3.30
2019-01-06T14:30:32.123Z,2.73
2019-01-06T14:33:25.832Z,2.70
2019-01-06T14:36:05.025Z,2.87
2019-01-06T14:39:12.392Z,3.07
2019-01-06T14:42:03.378Z,2.90
2019-01-06T14:44:57.243Z,2.50
2019-01-06T14:47:44.171Z,2.43
2019-01-06T14:50:49.610Z,2.40
2019-01-06T14:53:55.367Z,1.97
2019-01-06T14:56:49.021Z,3.10
2019-01-06T14:59:45.397Z,2.50
2019-01-06T15:02:34.757Z,3.20
2019-01-06T15:05:32.308Z,2.53
2019-01-06T15:08:34.926Z,2.10
2019-01-06T15:11:31.520Z,2.40
2019-01-06T15:14:20.559Z,2.60
2019-01-06T15:17:21.213Z,2.50
2019-01-06T15:20:06.644Z,2.33
2019-01-06T15:22:51.210Z,2.80
2019-01-06T15:25:40.153Z,2.63
2019-01-06T15:28:43.088Z,3.23
2019-01-06T15:31:32.183Z,3.47
2019-01-06T15:34:22.350Z,3.40
2019-01-06T15:37:28.000Z,3.33
2019-01-06T15:40:30.028Z,3.53
2019-01-06T15:43:23.701Z,4.17
2019-01-06T15:46:12.850Z,4.67
2019-01-06T15:49:01.925Z,3.43
2019-01-06T15:51:50.894Z,3.87
2019-01-06T15:54:36.844Z,3.93
2019-01-06T15:57:30.781Z,5.67
2019-01-06T16:00:26.940Z,5.37
2019-01-06T16:03:28.801Z,5.90
2019-01-06T16:06:20.733Z,4.23
2019-01-06T16:09:23.139Z,4.33
2019-01-06T16:12:16.792Z,4.17
2019-01-06T16:15:09.700Z,4.50
2019-01-06T16:17:59.037Z,5.10
2019-01-06T16:20:48.057Z,5.40
2019-01-06T16:23:48.293Z,4.57
2019-01-06T16:26:37.910Z,4.77
2019-01-06T16:29:27.300Z,4.57
2019-01-06T16:32:15.118Z,4.77
2019-01-06T16:35:04.713Z,4.90
2019-01-06T16:38:00.017Z,5.20
2019-01-06T16:41:00.026Z,4.73
2019-01-06T16:43:42.739Z,5.90
2019-01-06T16:46:31.434Z,5.63
2019-01-06T16:49:20.493Z,6.57
2019-01-06T16:52:11.185Z,7.33
2019-01-06T16:54:57.918Z,8.43
2019-01-06T16:57:48.587Z,9.73
2019-01-06T17:00:39.452Z,10.87
2019-01-06T17:03:31.007Z,9.60
2019-01-06T17:06:22.925Z,7.63
2019-01-06T17:09:14.993Z,6.10
2019-01-06T17:12:02.330Z,5.23
2019-01-06T17:14:53.733Z,6.00
2019-01-06T17:17:59.771Z,5.60
2019-01-06T17:20:49.410Z,6.90
2019-01-06T17:23:54.959Z,7.47
2019-01-06T17:26:48.209Z,6.90
2019-01-06T17:29:34.337Z,6.17
2019-01-06T17:32:31.555Z,6.30
2019-01-06T17:35:22.170Z,6.83
2019-01-06T17:38:14.170Z,6.63
2019-01-06T17:40:55.262Z,6.43
2019-01-06T17:43:53.584Z,6.27
2019-01-06T17:46:50.278Z,6.40
2019-01-06T17:49:39.223Z,5.30
2019-01-06T17:52:29.245Z,6.67
2019-01-06T17:55:18.574Z,6.50
2019-01-06T17:58:07.704Z,7.17
2019-01-06T18:01:17.459Z,6.80
2019-01-06T18:04:03.285Z,6.13
2019-01-06T18:06:58.176Z,5.73
2019-01-06T18:09:48.875Z,6.03
2019-01-06T18:12:45.021Z,5.63
2019-01-06T18:15:41.392Z,7.57
2019-01-06T18:18:47.195Z,4.80
2019-01-06T18:21:36.298Z,5.03
2019-01-06T18:24:28.189Z,4.90
2019-01-06T18:27:22.707Z,5.77
2019-01-06T18:30:14.456Z,5.37
2019-01-06T18:33:09.832Z,4.80
2019-01-06T18:36:04.337Z,4.30
2019-01-06T18:38:55.605Z,6.47
2019-01-06T18:41:44.486Z,7.30
2019-01-06T18:44:44.304Z,5.80
2019-01-06T18:47:29.685Z,5.20
2019-01-06T18:50:26.186Z,21.07
2019-01-06T18:53:15.598Z,14.57
2019-01-06T18:56:06.325Z,6.50
2019-01-06T18:58:57.420Z,6.33
2019-01-06T19:01:46.456Z,6.10
2019-01-06T19:04:52.210Z,6.43
2019-01-06T19:07:51.062Z,6.10
2019-01-06T19:10:53.161Z,6.17
2019-01-06T19:13:46.124Z,7.07
2019-01-06T19:16:49.057Z,5.70
2019-01-06T19:19:42.462Z,5.30
2019-01-06T19:22:38.606Z,5.33
2019-01-06T19:25:28.951Z,6.00
2019-01-06T19:28:24.994Z,5.17
2019-01-06T19:31:18.895Z,5.60
2019-01-06T19:34:29.104Z,5.47
2019-01-06T19:37:29.838Z,7.07
2019-01-06T19:40:34.933Z,7.53
2019-01-06T19:43:24.198Z,7.77
2019-01-06T19:46:24.556Z,7.33
2019-01-06T19:49:18.078Z,7.07
2019-01-06T19:52:12.970Z,6.43
2019-01-06T19:55:06.352Z,7.17
2019-01-06T19:57:58.101Z,8.17
2019-01-06T20:01:03.483Z,9.87
2019-01-06T20:03:52.662Z,12.73
2019-01-06T20:07:03.305Z,7.17
2019-01-06T20:09:57.672Z,7.13
2019-01-06T20:12:51.830Z,5.53
2019-01-06T20:15:41.017Z,6.00
2019-01-06T20:18:35.870Z,6.20
2019-01-06T20:21:29.336Z,7.00
2019-01-06T20:24:32.686Z,6.63
2019-01-06T20:27:32.206Z,7.73
2019-01-06T20:30:32.903Z,7.80
2019-01-06T20:33:38.090Z,7.03
2019-01-06T20:36:38.561Z,7.20
2019-01-06T20:39:34.864Z,5.60
2019-01-06T20:42:16.950Z,6.33
2019-01-06T20:45:19.356Z,7.13
2019-01-06T20:48:08.513Z,5.70
2019-01-06T20:51:09.399Z,5.70
2019-01-06T20:54:18.585Z,5.20
2019-01-06T20:57:09.212Z,5.10
2019-01-06T20:59:57.636Z,5.13
2019-01-06T21:02:53.150Z,5.53
2019-01-06T21:05:43.754Z,5.80
2019-01-06T21:08:36.961Z,7.57
2019-01-06T21:11:39.358Z,7.17
2019-01-06T21:14:28.161Z,6.60
2019-01-06T21:17:17.209Z,7.10
2019-01-06T21:20:17.627Z,8.17
2019-01-06T21:23:11.615Z,9.03
2019-01-06T21:26:00.847Z,7.77
2019-01-06T21:28:49.894Z,6.10
2019-01-06T21:31:46.086Z,7.43
2019-01-06T21:34:36.720Z,7.40
2019-01-06T21:37:42.538Z,8.00
2019-01-06T21:40:29.003Z,8.23
2019-01-06T21:43:18.022Z,7.17
2019-01-06T21:46:07.462Z,6.93
2019-01-06T21:49:11.424Z,7.23
2019-01-06T21:52:13.468Z,7.30
2019-01-06T21:55:21.953Z,8.57
2019-01-06T21:58:11.425Z,10.30
2019-01-06T22:01:16.894Z,9.20
2019-01-06T22:04:07.402Z,8.77
2019-01-06T22:07:09.857Z,9.23
2019-01-06T22:10:02.558Z,8.33
2019-01-06T22:12:53.177Z,8.90
2019-01-06T22:15:52.247Z,10.77
2019-01-06T22:18:42.712Z,9.93
2019-01-06T22:21:44.855Z,10.50
2019-01-06T22:24:35.202Z,11.67
2019-01-06T22:27:17.999Z,14.20
2019-01-06T22:30:15.693Z,11.17
2019-01-06T22:33:04.316Z,11.20
2019-01-06T22:35:52.933Z,11.27
2019-01-06T22:38:49.204Z,12.13
2019-01-06T22:41:41.051Z,11.87
2019-01-06T22:44:31.513Z,11.27
2019-01-06T22:47:22.669Z,12.13
2019-01-06T22:50:04.117Z,11.30
2019-01-06T22:52:54.706Z,12.10
2019-01-06T22:55:44.342Z,11.67
2019-01-06T22:58:40.293Z,22.73
2019-01-06T23:01:29.265Z,12.73
2019-01-06T23:04:15.028Z,11.83
2019-01-06T23:07:04.005Z,11.40
2019-01-06T23:09:53.684Z,11.27
2019-01-06T23:12:41.038Z,11.13
2019-01-06T23:15:31.644Z,8.83
2019-01-06T23:18:37.517Z,8.60
2019-01-06T23:21:29.745Z,10.00
2019-01-06T23:24:22.977Z,10.67
2019-01-06T23:27:12.281Z,8.83
2019-01-06T23:30:04.620Z,9.63
2019-01-06T23:33:13.458Z,10.73
2019-01-06T23:35:54.673Z,10.90
2019-01-06T23:39:00.174Z,10.87
2019-01-06T23:42:02.223Z,10.17
2019-01-06T23:45:01.564Z,10.07
2019-01-06T23:48:10.181Z,9.33
2019-01-06T23:50:54.485Z,9.57
2019-01-06T23:53:45.717Z,9.83
2019-01-06T23:56:42.914Z,9.33
2019-01-06T23:59:32.473Z,9.37
